sensor_id;sensor_type;location;lat;lon;timestamp;pressure;altitude;pressure_sealevel;temperature;humidity
6090;BME280;3073;42.660;23.316;2023-02-13T00:01:14;96232.91;;;-0.31;100.00
6090;BME280;3073;42.660;23.316;2023-02-13T00:03:41;96234.78;;;-0.54;100.00
6090;BME280;3073;42.660;23.316;2023-02-13T00:06:08;96224.94;;;-0.67;100.00
6090;BME280;3073;42.660;23.316;2023-02-13T00:08:36;96238.59;;;-0.80;100.00
6090;BME280;3073;42.660;23.316;2023-02-13T00:11:03;96236.34;;;-0.53;100.00
6090;BME280;3073;42.660;23.316;2023-02-13T00:13:30;96236.59;;;-0.56;100.00
6090;BME280;3073;42.660;23.316;2023-02-13T00:15:59;96242.75;;;-0.39;100.00
6090;BME280;3073;42.660;23.316;2023-02-13T00:18:27;96236.09;;;-0.50;100.00
6090;BME280;3073;42.660;23.316;2023-02-13T00:20:59;96239.53;;;-0.51;100.00
6090;BME280;3073;42.660;23.316;2023-02-13T00:23:26;96237.31;;;-0.44;100.00
6090;BME280;3073;42.660;23.316;2023-02-13T00:25:56;96242.66;;;-0.28;100.00
6090;BME280;3073;42.660;23.316;2023-02-13T00:28:23;96244.25;;;-0.27;100.00
6090;BME280;3073;42.660;23.316;2023-02-13T00:30:49;96247.84;;;-0.20;100.00
6090;BME280;3073;42.660;23.316;2023-02-13T00:33:16;96244.13;;;-0.26;100.00
6090;BME280;3073;42.660;23.316;2023-02-13T00:35:43;96252.75;;;-0.09;100.00
6090;BME280;3073;42.660;23.316;2023-02-13T00:38:10;96249.34;;;-0.08;100.00
6090;BME280;3073;42.660;23.316;2023-02-13T00:40:36;96254.53;;;0.00;100.00
6090;BME280;3073;42.660;23.316;2023-02-13T00:43:04;96246.56;;;-0.15;100.00
6090;BME280;3073;42.660;23.316;2023-02-13T00:45:31;96249.34;;;-0.08;100.00
6090;BME280;3073;42.660;23.316;2023-02-13T00:47:58;96249.34;;;-0.08;100.00
6090;BME280;3073;42.660;23.316;2023-02-13T00:50:25;96254.00;;;-0.04;100.00
6090;BME280;3073;42.660;23.316;2023-02-13T00:52:51;96252.69;;;0.02;100.00
6090;BME280;3073;42.660;23.316;2023-02-13T00:55:18;96258.22;;;-0.04;100.00
6090;BME280;3073;42.660;23.316;2023-02-13T00:57:45;96257.53;;;-0.06;100.00
6090;BME280;3073;42.660;23.316;2023-02-13T01:00:15;96259.19;;;-0.16;100.00
6090;BME280;3073;42.660;23.316;2023-02-13T01:02:42;96258.53;;;-0.18;100.00
6090;BME280;3073;42.660;23.316;2023-02-13T01:05:09;96258.13;;;-0.23;100.00
6090;BME280;3073;42.660;23.316;2023-02-13T01:07:36;96260.97;;;-0.07;100.00
6090;BME280;3073;42.660;23.316;2023-02-13T01:10:03;96260.56;;;-0.03;100.00
6090;BME280;3073;42.660;23.316;2023-02-13T01:12:33;96258.88;;;0.08;100.00
6090;BME280;3073;42.660;23.316;2023-02-13T01:15:00;96260.56;;;-0.03;100.00
6090;BME280;3073;42.660;23.316;2023-02-13T01:17:28;96253.59;;;0.01;100.00
6090;BME280;3073;42.660;23.316;2023-02-13T01:19:55;96258.47;;;-0.07;100.00
6090;BME280;3073;42.660;23.316;2023-02-13T01:22:21;96255.66;;;-0.14;100.00
6090;BME280;3073;42.660;23.316;2023-02-13T01:24:48;96254.91;;;-0.35;100.00
6090;BME280;3073;42.660;23.316;2023-02-13T01:27:16;96265.75;;;-0.34;100.00
6090;BME280;3073;42.660;23.316;2023-02-13T01:29:43;96259.78;;;-0.33;100.00
6090;BME280;3073;42.660;23.316;2023-02-13T01:32:09;96262.63;;;-0.27;100.00
6090;BME280;3073;42.660;23.316;2023-02-13T01:34:38;96262.00;;;-0.10;100.00
6090;BME280;3073;42.660;23.316;2023-02-13T01:37:05;96261.03;;;0.12;100.00
6090;BME280;3073;42.660;23.316;2023-02-13T01:39:32;96268.00;;;0.09;100.00
6090;BME280;3073;42.660;23.316;2023-02-13T01:41:58;96267.34;;;0.07;100.00
6090;BME280;3073;42.660;23.316;2023-02-13T01:44:46;96266.97;;;0.21;100.00
6090;BME280;3073;42.660;23.316;2023-02-13T01:47:15;96273.06;;;0.18;100.00
6090;BME280;3073;42.660;23.316;2023-02-13T01:49:46;96275.72;;;0.17;100.00
6090;BME280;3073;42.660;23.316;2023-02-13T01:52:14;96271.84;;;0.13;100.00
6090;BME280;3073;42.660;23.316;2023-02-13T01:54:42;96275.81;;;0.15;100.00
6090;BME280;3073;42.660;23.316;2023-02-13T01:57:12;96278.50;;;0.23;100.00
6090;BME280;3073;42.660;23.316;2023-02-13T01:59:44;96282.06;;;0.30;100.00
6090;BME280;3073;42.660;23.316;2023-02-13T02:02:13;96285.25;;;0.32;100.00
6090;BME280;3073;42.660;23.316;2023-02-13T02:04:41;96282.31;;;0.27;100.00
6090;BME280;3073;42.660;23.316;2023-02-13T02:07:13;96278.34;;;0.15;100.00
6090;BME280;3073;42.660;23.316;2023-02-13T02:09:43;96275.06;;;0.34;100.00
6090;BME280;3073;42.660;23.316;2023-02-13T02:12:20;96280.75;;;0.36;100.00
6090;BME280;3073;42.660;23.316;2023-02-13T02:14:48;96269.28;;;0.33;100.00
6090;BME280;3073;42.660;23.316;2023-02-13T02:17:16;96273.09;;;0.37;100.00
6090;BME280;3073;42.660;23.316;2023-02-13T02:19:48;96274.38;;;0.22;100.00
6090;BME280;3073;42.660;23.316;2023-02-13T02:22:35;96270.19;;;0.32;100.00
6090;BME280;3073;42.660;23.316;2023-02-13T02:25:26;96263.00;;;0.18;100.00
6090;BME280;3073;42.660;23.316;2023-02-13T02:28:19;96271.63;;;0.35;100.00
6090;BME280;3073;42.660;23.316;2023-02-13T02:31:21;96272.06;;;0.40;100.00
6090;BME280;3073;42.660;23.316;2023-02-13T02:34:07;96262.56;;;0.53;100.00
6090;BME280;3073;42.660;23.316;2023-02-13T02:36:46;96265.19;;;0.42;100.00
6090;BME280;3073;42.660;23.316;2023-02-13T02:39:28;96272.88;;;0.50;100.00
6090;BME280;3073;42.660;23.316;2023-02-13T02:42:02;96274.72;;;0.58;100.00
6090;BME280;3073;42.660;23.316;2023-02-13T02:44:36;96287.34;;;0.27;100.00
6090;BME280;3073;42.660;23.316;2023-02-13T02:47:17;96282.34;;;0.37;100.00
6090;BME280;3073;42.660;23.316;2023-02-13T02:50:30;96285.41;;;0.50;100.00
6090;BME280;3073;42.660;23.316;2023-02-13T02:53:07;96293.59;;;0.52;100.00
6090;BME280;3073;42.660;23.316;2023-02-13T02:55:43;96293.72;;;0.50;100.00
6090;BME280;3073;42.660;23.316;2023-02-13T02:58:18;96298.47;;;0.53;100.00
6090;BME280;3073;42.660;23.316;2023-02-13T03:01:06;96302.31;;;0.58;100.00
6090;BME280;3073;42.660;23.316;2023-02-13T03:03:54;96300.72;;;0.47;100.00
6090;BME280;3073;42.660;23.316;2023-02-13T03:06:44;96295.53;;;0.29;100.00
6090;BME280;3073;42.660;23.316;2023-02-13T03:09:28;96299.78;;;0.38;100.00
6090;BME280;3073;42.660;23.316;2023-02-13T03:12:16;96298.88;;;0.49;100.00
6090;BME280;3073;42.660;23.316;2023-02-13T03:15:03;96300.59;;;0.48;100.00
6090;BME280;3073;42.660;23.316;2023-02-13T03:17:30;96296.19;;;0.22;100.00
6090;BME280;3073;42.660;23.316;2023-02-13T03:20:22;96295.28;;;0.32;100.00
6090;BME280;3073;42.660;23.316;2023-02-13T03:23:16;96305.06;;;0.35;100.00
6090;BME280;3073;42.660;23.316;2023-02-13T03:26:01;96295.81;;;0.36;100.00
6090;BME280;3073;42.660;23.316;2023-02-13T03:28:35;96296.81;;;0.14;100.00
6090;BME280;3073;42.660;23.316;2023-02-13T03:31:30;96299.75;;;0.19;100.00
6090;BME280;3073;42.660;23.316;2023-02-13T03:34:03;96298.28;;;0.17;100.00
6090;BME280;3073;42.660;23.316;2023-02-13T03:36:43;96307.00;;;0.22;100.00
6090;BME280;3073;42.660;23.316;2023-02-13T03:39:42;96298.72;;;0.31;100.00
6090;BME280;3073;42.660;23.316;2023-02-13T03:42:13;96303.44;;;0.25;100.00
6090;BME280;3073;42.660;23.316;2023-02-13T03:44:48;96307.66;;;0.24;100.00
6090;BME280;3073;42.660;23.316;2023-02-13T03:47:37;96298.19;;;0.37;100.00
6090;BME280;3073;42.660;23.316;2023-02-13T03:50:06;96299.41;;;0.43;100.00
6090;BME280;3073;42.660;23.316;2023-02-13T03:52:38;96303.75;;;0.41;100.00
6090;BME280;3073;42.660;23.316;2023-02-13T03:55:09;96301.91;;;0.43;100.00
6090;BME280;3073;42.660;23.316;2023-02-13T03:57:59;96301.47;;;0.28;100.00
6090;BME280;3073;42.660;23.316;2023-02-13T04:00:47;96298.72;;;0.31;100.00
6090;BME280;3073;42.660;23.316;2023-02-13T04:03:23;96296.06;;;0.23;100.00
6090;BME280;3073;42.660;23.316;2023-02-13T04:05:54;96292.09;;;0.30;100.00
6090;BME280;3073;42.660;23.316;2023-02-13T04:08:21;96299.53;;;0.51;100.00
6090;BME280;3073;42.660;23.316;2023-02-13T04:10:52;96296.50;;;0.47;100.00
6090;BME280;3073;42.660;23.316;2023-02-13T04:13:41;96301.81;;;0.64;100.00
6090;BME280;3073;42.660;23.316;2023-02-13T04:16:33;96297.72;;;0.53;100.00
6090;BME280;3073;42.660;23.316;2023-02-13T04:19:02;96302.22;;;0.59;100.00
6090;BME280;3073;42.660;23.316;2023-02-13T04:21:31;96302.19;;;0.49;100.00
6090;BME280;3073;42.660;23.316;2023-02-13T04:23:59;96303.34;;;0.36;100.00
6090;BME280;3073;42.660;23.316;2023-02-13T04:26:32;96310.34;;;0.32;100.00
6090;BME280;3073;42.660;23.316;2023-02-13T04:28:59;96299.78;;;0.38;100.00
6090;BME280;3073;42.660;23.316;2023-02-13T04:31:26;96312.06;;;0.32;100.00
6090;BME280;3073;42.660;23.316;2023-02-13T04:33:53;96307.84;;;0.32;100.00
6090;BME280;3073;42.660;23.316;2023-02-13T04:36:19;96297.34;;;0.18;100.00
6090;BME280;3073;42.660;23.316;2023-02-13T04:38:46;96299.75;;;0.19;100.00
6090;BME280;3073;42.660;23.316;2023-02-13T04:41:13;96298.34;;;-0.04;100.00
6090;BME280;3073;42.660;23.316;2023-02-13T04:43:42;96302.09;;;0.21;100.00
6090;BME280;3073;42.660;23.316;2023-02-13T04:46:08;96294.75;;;0.29;100.00
6090;BME280;3073;42.660;23.316;2023-02-13T04:48:35;96303.31;;;0.17;100.00
6090;BME280;3073;42.660;23.316;2023-02-13T04:51:02;96295.38;;;0.21;100.00
6090;BME280;3073;42.660;23.316;2023-02-13T04:53:29;96300.53;;;0.20;100.00
6090;BME280;3073;42.660;23.316;2023-02-13T04:55:56;96302.38;;;0.27;100.00
6090;BME280;3073;42.660;23.316;2023-02-13T04:58:23;96313.00;;;0.40;100.00
6090;BME280;3073;42.660;23.316;2023-02-13T05:00:51;96319.09;;;0.47;100.00
6090;BME280;3073;42.660;23.316;2023-02-13T05:03:18;96313.81;;;0.50;100.00
6090;BME280;3073;42.660;23.316;2023-02-13T05:05:45;96322.84;;;0.63;100.00
6090;BME280;3073;42.660;23.316;2023-02-13T05:08:11;96314.63;;;0.61;100.00
6090;BME280;3073;42.660;23.316;2023-02-13T05:10:38;96324.19;;;0.76;100.00
6090;BME280;3073;42.660;23.316;2023-02-13T05:13:05;96328.94;;;0.79;100.00
6090;BME280;3073;42.660;23.316;2023-02-13T05:15:32;96326.97;;;0.83;100.00
6090;BME280;3073;42.660;23.316;2023-02-13T05:18:00;96320.06;;;0.85;100.00
6090;BME280;3073;42.660;23.316;2023-02-13T05:20:27;96324.47;;;0.92;100.00
6090;BME280;3073;42.660;23.316;2023-02-13T05:22:54;96326.72;;;0.95;100.00
6090;BME280;3073;42.660;23.316;2023-02-13T05:25:39;96335.03;;;0.96;100.00
6090;BME280;3073;42.660;23.316;2023-02-13T05:28:07;96327.63;;;0.94;100.00
6090;BME280;3073;42.660;23.316;2023-02-13T05:30:54;96330.94;;;0.95;100.00
6090;BME280;3073;42.660;23.316;2023-02-13T05:33:22;96328.41;;;1.04;100.00
6090;BME280;3073;42.660;23.316;2023-02-13T05:35:48;96331.09;;;1.03;100.00
6090;BME280;3073;42.660;23.316;2023-02-13T05:38:15;96333.06;;;1.09;100.00
6090;BME280;3073;42.660;23.316;2023-02-13T05:40:42;96337.94;;;1.11;100.00
6090;BME280;3073;42.660;23.316;2023-02-13T05:43:09;96334.78;;;1.18;100.00
6090;BME280;3073;42.660;23.316;2023-02-13T05:45:36;96337.94;;;1.20;100.00
6090;BME280;3073;42.660;23.316;2023-02-13T05:48:03;96345.88;;;1.25;100.00
6090;BME280;3073;42.660;23.316;2023-02-13T05:50:31;96342.56;;;1.34;100.00
6090;BME280;3073;42.660;23.316;2023-02-13T05:52:58;96343.25;;;1.27;100.00
6090;BME280;3073;42.660;23.316;2023-02-13T05:55:24;96344.81;;;1.37;100.00
6090;BME280;3073;42.660;23.316;2023-02-13T05:57:55;96346.13;;;1.41;100.00
6090;BME280;3073;42.660;23.316;2023-02-13T06:00:22;96349.06;;;1.46;100.00
6090;BME280;3073;42.660;23.316;2023-02-13T06:02:49;96355.13;;;1.34;100.00
6090;BME280;3073;42.660;23.316;2023-02-13T06:05:16;96351.44;;;1.38;100.00
6090;BME280;3073;42.660;23.316;2023-02-13T06:07:44;96357.81;;;1.23;100.00
6090;BME280;3073;42.660;23.316;2023-02-13T06:10:11;96354.09;;;1.18;100.00
6090;BME280;3073;42.660;23.316;2023-02-13T06:12:38;96356.72;;;1.35;100.00
6090;BME280;3073;42.660;23.316;2023-02-13T06:15:05;96359.50;;;1.42;100.00
6090;BME280;3073;42.660;23.316;2023-02-13T06:17:32;96367.31;;;1.48;100.00
6090;BME280;3073;42.660;23.316;2023-02-13T06:19:59;96367.56;;;1.55;100.00
6090;BME280;3073;42.660;23.316;2023-02-13T06:22:26;96366.50;;;1.58;100.00
6090;BME280;3073;42.660;23.316;2023-02-13T06:24:54;96367.84;;;1.52;100.00
6090;BME280;3073;42.660;23.316;2023-02-13T06:27:21;96368.75;;;1.61;100.00
6090;BME280;3073;42.660;23.316;2023-02-13T06:29:48;96363.19;;;1.67;100.00
6090;BME280;3073;42.660;23.316;2023-02-13T06:32:15;96368.72;;;1.80;100.00
6090;BME280;3073;42.660;23.316;2023-02-13T06:34:42;96379.19;;;1.75;100.00
6090;BME280;3073;42.660;23.316;2023-02-13T06:37:09;96378.63;;;1.91;100.00
6090;BME280;3073;42.660;23.316;2023-02-13T06:39:35;96365.41;;;1.79;100.00
6090;BME280;3073;42.660;23.316;2023-02-13T06:42:04;96368.81;;;1.97;100.00
6090;BME280;3073;42.660;23.316;2023-02-13T06:44:33;96381.31;;;1.80;100.00
6090;BME280;3073;42.660;23.316;2023-02-13T06:47:00;96381.66;;;1.94;100.00
6090;BME280;3073;42.660;23.316;2023-02-13T06:49:27;96373.72;;;1.99;100.00
6090;BME280;3073;42.660;23.316;2023-02-13T06:51:54;96379.78;;;2.06;100.00
6090;BME280;3073;42.660;23.316;2023-02-13T06:54:20;96376.50;;;1.96;100.00
6090;BME280;3073;42.660;23.316;2023-02-13T06:56:47;96375.56;;;1.97;100.00
6090;BME280;3073;42.660;23.316;2023-02-13T06:59:15;96372.38;;;2.04;100.00
6090;BME280;3073;42.660;23.316;2023-02-13T07:01:42;96376.44;;;2.15;100.00
6090;BME280;3073;42.660;23.316;2023-02-13T07:04:09;96379.75;;;2.16;100.00
6090;BME280;3073;42.660;23.316;2023-02-13T07:06:36;96373.38;;;2.21;100.00
6090;BME280;3073;42.660;23.316;2023-02-13T07:09:03;96364.56;;;2.35;100.00
6090;BME280;3073;42.660;23.316;2023-02-13T07:11:30;96367.22;;;2.06;100.00
6090;BME280;3073;42.660;23.316;2023-02-13T07:13:57;96361.75;;;1.45;100.00
6090;BME280;3073;42.660;23.316;2023-02-13T07:16:25;96368.91;;;1.40;100.00
6090;BME280;3073;42.660;23.316;2023-02-13T07:18:52;96372.72;;;1.44;100.00
6090;BME280;3073;42.660;23.316;2023-02-13T07:21:19;96376.97;;;1.53;100.00
6090;BME280;3073;42.660;23.316;2023-02-13T07:23:47;96376.16;;;1.72;100.00
6090;BME280;3073;42.660;23.316;2023-02-13T07:26:13;96383.38;;;1.94;100.00
6090;BME280;3073;42.660;23.316;2023-02-13T07:28:41;96382.34;;;1.87;100.00
6090;BME280;3073;42.660;23.316;2023-02-13T07:31:08;96384.25;;;1.66;100.00
6090;BME280;3073;42.660;23.316;2023-02-13T07:33:36;96382.78;;;1.73;100.00
6090;BME280;3073;42.660;23.316;2023-02-13T07:36:04;96389.28;;;1.56;100.00
6090;BME280;3073;42.660;23.316;2023-02-13T07:38:31;96386.63;;;1.58;100.00
6090;BME280;3073;42.660;23.316;2023-02-13T07:40:58;96385.03;;;1.47;100.00
6090;BME280;3073;42.660;23.316;2023-02-13T07:43:26;96383.44;;;1.75;100.00
6090;BME280;3073;42.660;23.316;2023-02-13T07:45:53;96384.03;;;2.05;100.00
6090;BME280;3073;42.660;23.316;2023-02-13T07:48:21;96388.38;;;2.13;100.00
6090;BME280;3073;42.660;23.316;2023-02-13T07:50:49;96380.56;;;2.16;100.00
6090;BME280;3073;42.660;23.316;2023-02-13T07:53:16;96385.16;;;2.21;100.00
6090;BME280;3073;42.660;23.316;2023-02-13T07:55:43;96388.63;;;2.20;100.00
6090;BME280;3073;42.660;23.316;2023-02-13T07:58:10;96384.00;;;2.15;100.00
6090;BME280;3073;42.660;23.316;2023-02-13T08:00:36;96380.38;;;2.27;100.00
6090;BME280;3073;42.660;23.316;2023-02-13T08:03:03;96383.88;;;2.07;100.00
6090;BME280;3073;42.660;23.316;2023-02-13T08:05:31;96386.53;;;2.05;100.00
6090;BME280;3073;42.660;23.316;2023-02-13T08:08:00;96385.75;;;2.05;100.00
6090;BME280;3073;42.660;23.316;2023-02-13T08:10:27;96381.13;;;2.37;100.00
6090;BME280;3073;42.660;23.316;2023-02-13T08:13:08;96378.25;;;2.32;100.00
6090;BME280;3073;42.660;23.316;2023-02-13T08:15:37;96381.88;;;2.20;100.00
6090;BME280;3073;42.660;23.316;2023-02-13T08:18:05;96374.22;;;2.12;100.00
6090;BME280;3073;42.660;23.316;2023-02-13T08:20:33;96372.84;;;2.18;100.00
6090;BME280;3073;42.660;23.316;2023-02-13T08:23:07;96379.16;;;2.31;100.00
6090;BME280;3073;42.660;23.316;2023-02-13T08:25:37;96376.66;;;2.58;100.00
6090;BME280;3073;42.660;23.316;2023-02-13T08:28:04;96382.69;;;2.75;100.00
6090;BME280;3073;42.660;23.316;2023-02-13T08:30:31;96378.78;;;2.81;100.00
6090;BME280;3073;42.660;23.316;2023-02-13T08:32:57;96375.06;;;2.57;100.00
6090;BME280;3073;42.660;23.316;2023-02-13T08:35:24;96378.63;;;2.65;100.00
6090;BME280;3073;42.660;23.316;2023-02-13T08:37:54;96378.78;;;2.81;100.00
6090;BME280;3073;42.660;23.316;2023-02-13T08:40:22;96378.56;;;2.74;100.00
6090;BME280;3073;42.660;23.316;2023-02-13T08:42:49;96374.59;;;2.72;100.00
6090;BME280;3073;42.660;23.316;2023-02-13T08:45:16;96381.19;;;2.82;100.00
6090;BME280;3073;42.660;23.316;2023-02-13T08:47:43;96382.88;;;2.64;100.00
6090;BME280;3073;42.660;23.316;2023-02-13T08:50:10;96377.41;;;2.41;100.00
6090;BME280;3073;42.660;23.316;2023-02-13T08:52:37;96381.88;;;2.47;100.00
6090;BME280;3073;42.660;23.316;2023-02-13T08:55:05;96377.97;;;2.63;100.00
6090;BME280;3073;42.660;23.316;2023-02-13T08:57:33;96380.97;;;2.76;100.00
6090;BME280;3073;42.660;23.316;2023-02-13T09:00:00;96387.47;;;2.96;100.00
6090;BME280;3073;42.660;23.316;2023-02-13T09:02:28;96384.13;;;3.23;100.00
6090;BME280;3073;42.660;23.316;2023-02-13T09:04:54;96381.34;;;3.51;100.00
6090;BME280;3073;42.660;23.316;2023-02-13T09:07:21;96382.56;;;3.65;100.00
6090;BME280;3073;42.660;23.316;2023-02-13T09:09:48;96376.69;;;3.39;100.00
6090;BME280;3073;42.660;23.316;2023-02-13T09:12:15;96376.78;;;2.67;100.00
6090;BME280;3073;42.660;23.316;2023-02-13T09:14:44;96383.13;;;2.88;100.00
6090;BME280;3073;42.660;23.316;2023-02-13T09:17:10;96388.00;;;3.35;100.00
6090;BME280;3073;42.660;23.316;2023-02-13T09:19:38;96382.38;;;3.41;100.00
6090;BME280;3073;42.660;23.316;2023-02-13T09:22:05;96373.78;;;3.69;100.00
6090;BME280;3073;42.660;23.316;2023-02-13T09:24:32;96377.34;;;4.10;100.00
6090;BME280;3073;42.660;23.316;2023-02-13T09:26:59;96378.91;;;4.37;100.00
6090;BME280;3073;42.660;23.316;2023-02-13T09:29:25;96379.59;;;4.21;100.00
6090;BME280;3073;42.660;23.316;2023-02-13T09:31:56;96368.22;;;4.17;100.00
6090;BME280;3073;42.660;23.316;2023-02-13T09:34:23;96366.47;;;4.43;100.00
6090;BME280;3073;42.660;23.316;2023-02-13T09:36:51;96367.88;;;4.88;100.00
6090;BME280;3073;42.660;23.316;2023-02-13T09:39:18;96363.19;;;5.41;100.00
6090;BME280;3073;42.660;23.316;2023-02-13T09:41:48;96361.28;;;6.55;100.00
6090;BME280;3073;42.660;23.316;2023-02-13T09:44:19;96362.03;;;7.48;100.00
6090;BME280;3073;42.660;23.316;2023-02-13T09:47:07;96353.81;;;7.23;90.57
6090;BME280;3073;42.660;23.316;2023-02-13T09:49:42;96352.81;;;6.70;92.79
6090;BME280;3073;42.660;23.316;2023-02-13T09:52:09;96351.47;;;6.05;100.00
6090;BME280;3073;42.660;23.316;2023-02-13T09:54:36;96356.53;;;6.13;98.46
6090;BME280;3073;42.660;23.316;2023-02-13T09:57:07;96344.47;;;6.23;98.90
6090;BME280;3073;42.660;23.316;2023-02-13T09:59:44;96344.44;;;7.23;92.88
6090;BME280;3073;42.660;23.316;2023-02-13T10:02:23;96333.66;;;7.21;82.14
6090;BME280;3073;42.660;23.316;2023-02-13T10:04:59;96333.31;;;7.24;92.36
6090;BME280;3073;42.660;23.316;2023-02-13T10:07:35;96335.59;;;9.46;75.46
6090;BME280;3073;42.660;23.316;2023-02-13T10:10:13;96324.06;;;9.50;69.34
6090;BME280;3073;42.660;23.316;2023-02-13T10:13:07;96319.38;;;10.37;65.48
6090;BME280;3073;42.660;23.316;2023-02-13T10:15:39;96314.00;;;9.42;64.71
6090;BME280;3073;42.660;23.316;2023-02-13T10:18:14;96309.66;;;10.60;62.69
6090;BME280;3073;42.660;23.316;2023-02-13T10:20:44;96310.69;;;10.31;61.64
6090;BME280;3073;42.660;23.316;2023-02-13T10:23:21;96309.16;;;10.91;61.11
6090;BME280;3073;42.660;23.316;2023-02-13T10:25:54;96305.84;;;11.10;59.05
6090;BME280;3073;42.660;23.316;2023-02-13T10:28:29;96297.94;;;12.23;56.96
6090;BME280;3073;42.660;23.316;2023-02-13T10:31:02;96294.53;;;12.42;54.95
6090;BME280;3073;42.660;23.316;2023-02-13T10:33:35;96288.56;;;10.04;59.61
6090;BME280;3073;42.660;23.316;2023-02-13T10:36:08;96285.78;;;9.99;60.62
6090;BME280;3073;42.660;23.316;2023-02-13T10:38:40;96281.66;;;10.32;60.98
6090;BME280;3073;42.660;23.316;2023-02-13T10:41:22;96279.88;;;12.05;56.34
6090;BME280;3073;42.660;23.316;2023-02-13T10:44:05;96277.72;;;11.95;56.36
6090;BME280;3073;42.660;23.316;2023-02-13T10:46:42;96273.94;;;12.17;53.62
6090;BME280;3073;42.660;23.316;2023-02-13T10:49:28;96266.69;;;12.59;53.47
6090;BME280;3073;42.660;23.316;2023-02-13T10:52:05;96264.44;;;13.07;51.73
6090;BME280;3073;42.660;23.316;2023-02-13T10:54:53;96260.19;;;12.56;51.82
6090;BME280;3073;42.660;23.316;2023-02-13T10:57:29;96260.16;;;13.01;52.00
6090;BME280;3073;42.660;23.316;2023-02-13T11:00:10;96263.97;;;12.54;52.89
6090;BME280;3073;42.660;23.316;2023-02-13T11:02:38;96256.59;;;13.02;51.65
6090;BME280;3073;42.660;23.316;2023-02-13T11:05:14;96242.97;;;13.32;50.72
6090;BME280;3073;42.660;23.316;2023-02-13T11:07:43;96241.78;;;11.05;54.23
6090;BME280;3073;42.660;23.316;2023-02-13T11:10:15;96244.75;;;11.74;53.17
6090;BME280;3073;42.660;23.316;2023-02-13T11:12:42;96241.81;;;13.04;50.89
6090;BME280;3073;42.660;23.316;2023-02-13T11:15:20;96238.31;;;12.60;51.22
6090;BME280;3073;42.660;23.316;2023-02-13T11:17:49;96237.84;;;9.53;54.57
6090;BME280;3073;42.660;23.316;2023-02-13T11:20:32;96230.16;;;10.15;56.88
6090;BME280;3073;42.660;23.316;2023-02-13T11:23:16;96225.63;;;10.78;56.27
6090;BME280;3073;42.660;23.316;2023-02-13T11:25:56;96213.47;;;11.52;54.22
6090;BME280;3073;42.660;23.316;2023-02-13T11:28:26;96204.84;;;11.01;54.00
6090;BME280;3073;42.660;23.316;2023-02-13T11:31:07;96201.66;;;11.77;52.30
6090;BME280;3073;42.660;23.316;2023-02-13T11:33:36;96197.44;;;12.47;51.24
6090;BME280;3073;42.660;23.316;2023-02-13T11:36:06;96195.41;;;11.34;51.46
6090;BME280;3073;42.660;23.316;2023-02-13T11:38:33;96181.94;;;12.67;51.02
6090;BME280;3073;42.660;23.316;2023-02-13T11:41:06;96186.44;;;11.96;51.98
6090;BME280;3073;42.660;23.316;2023-02-13T11:43:36;96180.34;;;11.97;50.81
6090;BME280;3073;42.660;23.316;2023-02-13T11:46:16;96177.75;;;13.04;49.39
6090;BME280;3073;42.660;23.316;2023-02-13T11:48:55;96165.88;;;12.53;48.84
6090;BME280;3073;42.660;23.316;2023-02-13T11:51:36;96170.16;;;13.40;48.66
6090;BME280;3073;42.660;23.316;2023-02-13T11:54:04;96157.00;;;14.39;45.72
6090;BME280;3073;42.660;23.316;2023-02-13T11:56:47;96150.34;;;14.31;45.42
6090;BME280;3073;42.660;23.316;2023-02-13T11:59:14;96142.69;;;14.13;46.91
6090;BME280;3073;42.660;23.316;2023-02-13T12:01:42;96146.00;;;14.32;45.37
6090;BME280;3073;42.660;23.316;2023-02-13T12:04:15;96134.66;;;14.21;45.85
6090;BME280;3073;42.660;23.316;2023-02-13T12:07:00;96136.00;;;15.18;44.52
6090;BME280;3073;42.660;23.316;2023-02-13T12:09:28;96125.13;;;14.81;44.17
6090;BME280;3073;42.660;23.316;2023-02-13T12:11:59;96131.38;;;13.05;46.57
6090;BME280;3073;42.660;23.316;2023-02-13T12:14:30;96125.94;;;13.63;46.75
6090;BME280;3073;42.660;23.316;2023-02-13T12:17:02;96132.50;;;14.07;45.18
6090;BME280;3073;42.660;23.316;2023-02-13T12:19:34;96125.91;;;14.82;43.92
6090;BME280;3073;42.660;23.316;2023-02-13T12:22:27;96123.81;;;14.90;44.00
6090;BME280;3073;42.660;23.316;2023-02-13T12:25:13;96119.53;;;14.84;43.40
6090;BME280;3073;42.660;23.316;2023-02-13T12:27:49;96124.19;;;14.53;43.12
6090;BME280;3073;42.660;23.316;2023-02-13T12:30:35;96124.09;;;12.84;45.66
6090;BME280;3073;42.660;23.316;2023-02-13T12:33:17;96131.00;;;12.52;46.68
6090;BME280;3073;42.660;23.316;2023-02-13T12:35:54;96114.09;;;13.62;45.08
6090;BME280;3073;42.660;23.316;2023-02-13T12:38:40;96117.00;;;13.65;45.26
6090;BME280;3073;42.660;23.316;2023-02-13T12:41:17;96118.78;;;13.65;44.55
6090;BME280;3073;42.660;23.316;2023-02-13T12:44:22;96111.06;;;14.95;43.10
6090;BME280;3073;42.660;23.316;2023-02-13T12:47:04;96104.16;;;15.31;41.58
6090;BME280;3073;42.660;23.316;2023-02-13T12:50:02;96094.94;;;14.65;42.23
6090;BME280;3073;42.660;23.316;2023-02-13T12:52:42;96103.34;;;13.53;43.27
6090;BME280;3073;42.660;23.316;2023-02-13T12:55:22;96087.81;;;12.62;44.80
6090;BME280;3073;42.660;23.316;2023-02-13T12:58:02;96079.69;;;13.99;43.96
6090;BME280;3073;42.660;23.316;2023-02-13T13:00:41;96085.91;;;13.91;43.48
6090;BME280;3073;42.660;23.316;2023-02-13T13:03:27;96083.81;;;14.30;43.02
6090;BME280;3073;42.660;23.316;2023-02-13T13:06:09;96081.78;;;14.97;41.58
6090;BME280;3073;42.660;23.316;2023-02-13T13:09:02;96082.78;;;15.54;41.00
6090;BME280;3073;42.660;23.316;2023-02-13T13:11:46;96076.75;;;13.66;43.58
6090;BME280;3073;42.660;23.316;2023-02-13T13:14:26;96077.19;;;14.11;42.75
6090;BME280;3073;42.660;23.316;2023-02-13T13:17:00;96073.00;;;13.14;44.18
6090;BME280;3073;42.660;23.316;2023-02-13T13:19:36;96072.28;;;12.82;44.43
6090;BME280;3073;42.660;23.316;2023-02-13T13:22:11;96068.44;;;13.70;43.72
6090;BME280;3073;42.660;23.316;2023-02-13T13:24:53;96059.84;;;13.76;42.99
6090;BME280;3073;42.660;23.316;2023-02-13T13:27:26;96061.78;;;14.11;42.86
6090;BME280;3073;42.660;23.316;2023-02-13T13:29:58;96062.41;;;14.36;42.54
6090;BME280;3073;42.660;23.316;2023-02-13T13:32:27;96060.19;;;14.39;42.32
6090;BME280;3073;42.660;23.316;2023-02-13T13:34:55;96056.66;;;13.81;43.03
6090;BME280;3073;42.660;23.316;2023-02-13T13:37:29;96050.31;;;12.93;44.63